createdAt,value
2019-02-24T00:00:21.832Z,0.51
2019-02-24T00:01:21.867Z,0.51
2019-02-24T00:02:21.833Z,0.58
2019-02-24T00:03:33.931Z,0.58
2019-02-24T00:04:21.786Z,0.56
2019-02-24T00:05:21.771Z,0.52
2019-02-24T00:06:21.774Z,0.59
2019-02-24T00:07:21.789Z,0.63
2019-02-24T00:08:21.744Z,0.67
2019-02-24T00:09:21.732Z,0.64
2019-02-24T00:10:21.734Z,0.59
2019-02-24T00:11:21.720Z,0.58
2019-02-24T00:12:21.704Z,0.51
2019-02-24T00:13:21.730Z,0.52
2019-02-24T00:14:21.681Z,0.61
2019-02-24T00:15:21.669Z,0.56
2019-02-24T00:16:21.658Z,0.51
2019-02-24T00:17:21.642Z,0.59
2019-02-24T00:18:21.642Z,0.63
2019-02-24T00:19:21.630Z,0.74
2019-02-24T00:20:21.613Z,0.59
2019-02-24T00:21:21.605Z,0.64
2019-02-24T00:22:21.586Z,0.68
2019-02-24T00:23:21.574Z,0.66
2019-02-24T00:24:21.727Z,0.59
2019-02-24T00:25:21.558Z,0.63
2019-02-24T00:26:21.547Z,0.66
2019-02-24T00:27:21.540Z,0.58
2019-02-24T00:28:21.526Z,0.59
2019-02-24T00:29:21.508Z,0.58
2019-02-24T00:30:21.535Z,0.59
2019-02-24T00:31:21.488Z,0.59
2019-02-24T00:32:21.475Z,0.49
2019-02-24T00:33:21.468Z,0.56
2019-02-24T00:34:34.415Z,0.63
2019-02-24T00:35:21.444Z,0.63
2019-02-24T00:36:21.449Z,0.51
2019-02-24T00:37:21.424Z,0.55
2019-02-24T00:38:21.420Z,0.56
2019-02-24T00:39:21.406Z,0.52
2019-02-24T00:40:21.392Z,0.63
2019-02-24T00:41:21.399Z,0.63
2019-02-24T00:42:21.366Z,0.61
2019-02-24T00:43:21.356Z,0.49
2019-02-24T00:44:21.409Z,0.52
2019-02-24T00:45:21.339Z,0.51
2019-02-24T00:46:21.325Z,0.59
2019-02-24T00:47:21.357Z,0.55
2019-02-24T00:48:21.301Z,0.49
2019-02-24T00:49:21.296Z,0.52
2019-02-24T00:50:21.283Z,0.52
2019-02-24T00:51:21.277Z,0.48
2019-02-24T00:52:21.256Z,0.58
2019-02-24T00:53:21.418Z,0.51
2019-02-24T00:54:21.239Z,0.49
2019-02-24T00:55:21.224Z,0.48
2019-02-24T00:56:21.219Z,0.51
2019-02-24T00:57:21.210Z,0.42
2019-02-24T00:58:21.193Z,0.42
2019-02-24T00:59:21.217Z,0.45
2019-02-24T01:00:21.175Z,0.39
2019-02-24T01:01:21.160Z,0.42
2019-02-24T01:02:21.150Z,0.39
2019-02-24T01:03:21.173Z,0.49
2019-02-24T01:04:21.135Z,0.39
2019-02-24T01:05:34.742Z,0.44
2019-02-24T01:06:21.105Z,0.44
2019-02-24T01:07:21.094Z,0.55
2019-02-24T01:08:21.089Z,0.56
2019-02-24T01:09:21.074Z,0.55
2019-02-24T01:10:21.062Z,0.56
2019-02-24T01:11:21.096Z,0.52
2019-02-24T01:12:21.042Z,0.52
2019-02-24T01:13:21.028Z,0.59
2019-02-24T01:14:21.017Z,0.61
2019-02-24T01:15:21.008Z,0.68
2019-02-24T01:16:21.003Z,0.71
2019-02-24T01:17:21.011Z,0.76
2019-02-24T01:18:20.982Z,0.82
2019-02-24T01:19:20.970Z,0.82
2019-02-24T01:20:20.950Z,0.86
2019-02-24T01:21:20.964Z,0.94
2019-02-24T01:22:20.931Z,0.94
2019-02-24T01:23:20.925Z,0.92
2019-02-24T01:24:20.922Z,0.96
2019-02-24T01:25:20.899Z,0.91
2019-02-24T01:26:20.890Z,0.95
2019-02-24T01:27:20.879Z,1.07
2019-02-24T01:28:25.261Z,0.95
2019-02-24T01:29:20.857Z,1.00
2019-02-24T01:30:20.847Z,1.13
2019-02-24T01:31:20.840Z,1.10
2019-02-24T01:32:20.824Z,1.00
2019-02-24T01:33:20.819Z,1.00
2019-02-24T01:34:20.881Z,0.86
2019-02-24T01:35:20.791Z,0.92
2019-02-24T01:36:34.002Z,0.91
2019-02-24T01:37:20.762Z,0.84
2019-02-24T01:38:20.753Z,0.81
2019-02-24T01:39:20.747Z,0.71
2019-02-24T01:40:20.761Z,0.76
2019-02-24T01:41:20.725Z,0.68
2019-02-24T01:42:20.719Z,0.73
2019-02-24T01:43:20.701Z,0.71
2019-02-24T01:44:20.722Z,0.58
2019-02-24T01:45:20.681Z,0.71
2019-02-24T01:46:20.668Z,0.81
2019-02-24T01:47:20.654Z,0.95
2019-02-24T01:48:21.195Z,0.99
2019-02-24T01:49:20.631Z,1.00
2019-02-24T01:50:20.770Z,1.04
2019-02-24T01:51:20.620Z,1.10
2019-02-24T01:52:20.599Z,1.13
2019-02-24T01:53:20.587Z,1.20
2019-02-24T01:54:20.575Z,1.18
2019-02-24T01:55:20.562Z,1.28
2019-02-24T01:56:20.591Z,1.18
2019-02-24T01:57:20.541Z,1.24
2019-02-24T01:58:20.532Z,1.25
2019-02-24T01:59:20.526Z,1.21
2019-02-24T02:00:20.510Z,1.10
2019-02-24T02:01:20.503Z,1.13
2019-02-24T02:02:20.530Z,1.22
2019-02-24T02:03:20.479Z,1.21
2019-02-24T02:04:20.466Z,1.24
2019-02-24T02:05:20.460Z,1.24
2019-02-24T02:06:20.450Z,1.20
2019-02-24T02:07:32.815Z,1.25
2019-02-24T02:08:20.422Z,1.24
2019-02-24T02:09:20.409Z,1.22
2019-02-24T02:10:20.402Z,1.21
2019-02-24T02:11:20.392Z,1.14
2019-02-24T02:12:20.381Z,1.14
2019-02-24T02:13:20.548Z,1.13
2019-02-24T02:14:20.357Z,1.14
2019-02-24T02:15:20.343Z,1.04
2019-02-24T02:16:20.336Z,0.99
2019-02-24T02:17:20.327Z,1.06
2019-02-24T02:18:20.314Z,1.09
2019-02-24T02:19:20.339Z,1.02
2019-02-24T02:20:20.292Z,0.99
2019-02-24T02:21:20.286Z,1.12
2019-02-24T02:22:20.269Z,1.02
2019-02-24T02:23:20.258Z,1.02
2019-02-24T02:24:20.245Z,0.99
2019-02-24T02:25:20.243Z,1.04
2019-02-24T02:26:20.231Z,1.07
2019-02-24T02:27:20.216Z,1.04
2019-02-24T02:28:20.205Z,0.94
2019-02-24T02:29:20.201Z,1.00
2019-02-24T02:30:20.220Z,1.07
2019-02-24T02:31:20.165Z,1.12
2019-02-24T02:32:20.155Z,1.03
2019-02-24T02:33:20.147Z,1.10
2019-02-24T02:34:20.141Z,1.12
2019-02-24T02:35:20.139Z,1.21
2019-02-24T02:36:20.294Z,1.13
2019-02-24T02:37:20.099Z,1.13
2019-02-24T02:38:32.097Z,1.16
2019-02-24T02:39:20.079Z,1.25
2019-02-24T02:40:20.065Z,1.24
2019-02-24T02:41:20.059Z,1.24
2019-02-24T02:42:20.101Z,1.25
2019-02-24T02:43:20.030Z,1.24
2019-02-24T02:44:20.020Z,1.25
2019-02-24T02:45:20.019Z,1.31
2019-02-24T02:46:20.009Z,1.40
2019-02-24T02:47:20.037Z,1.42
2019-02-24T02:48:19.994Z,1.48
2019-02-24T02:49:19.970Z,1.50
2019-02-24T02:50:19.956Z,1.49
2019-02-24T02:51:19.949Z,1.49
2019-02-24T02:52:19.938Z,1.46
2019-02-24T02:53:19.923Z,1.43
2019-02-24T02:54:19.950Z,1.60
2019-02-24T02:55:19.909Z,1.56
2019-02-24T02:56:19.895Z,1.60
2019-02-24T02:57:19.883Z,1.48
2019-02-24T02:58:19.868Z,1.48
2019-02-24T02:59:19.865Z,1.64
2019-02-24T03:00:20.314Z,1.60
2019-02-24T03:01:19.834Z,1.60
2019-02-24T03:02:24.497Z,1.57
2019-02-24T03:03:20.817Z,1.58
2019-02-24T03:04:19.806Z,1.68
2019-02-24T03:05:19.789Z,1.60
2019-02-24T03:06:19.821Z,1.76
2019-02-24T03:07:19.780Z,1.67
2019-02-24T03:08:19.760Z,1.60
2019-02-24T03:09:33.625Z,1.74
2019-02-24T03:10:19.737Z,1.66
2019-02-24T03:11:19.725Z,1.76
2019-02-24T03:12:19.751Z,1.71
2019-02-24T03:13:19.708Z,1.70
2019-02-24T03:14:19.772Z,1.79
2019-02-24T03:15:19.681Z,1.81
2019-02-24T03:16:19.676Z,1.76
2019-02-24T03:17:19.665Z,1.86
2019-02-24T03:18:19.663Z,1.81
2019-02-24T03:19:19.647Z,1.81
2019-02-24T03:20:19.631Z,1.76
2019-02-24T03:21:19.620Z,1.82
2019-02-24T03:22:19.604Z,1.84
2019-02-24T03:23:19.616Z,1.85
2019-02-24T03:24:19.598Z,1.88
2019-02-24T03:25:19.572Z,1.84
2019-02-24T03:26:19.567Z,1.92
2019-02-24T03:27:19.555Z,1.93
2019-02-24T03:28:19.540Z,1.82
2019-02-24T03:29:19.572Z,1.84
2019-02-24T03:30:19.526Z,1.92
2019-02-24T03:31:19.520Z,1.95
2019-02-24T03:32:19.502Z,1.89
2019-02-24T03:33:19.492Z,1.92
2019-02-24T03:34:19.473Z,1.93
2019-02-24T03:35:19.654Z,1.98
2019-02-24T03:36:19.457Z,2.07
2019-02-24T03:37:19.449Z,1.98
2019-02-24T03:38:19.432Z,2.01
2019-02-24T03:39:19.428Z,1.95
2019-02-24T03:40:32.501Z,1.98
2019-02-24T03:41:19.407Z,2.00
2019-02-24T03:42:19.390Z,1.89
2019-02-24T03:43:19.383Z,2.04
2019-02-24T03:44:19.365Z,1.95
2019-02-24T03:45:19.361Z,1.95
2019-02-24T03:46:19.388Z,2.00
2019-02-24T03:47:19.332Z,1.95
2019-02-24T03:48:19.331Z,2.00
2019-02-24T03:49:19.313Z,2.01
2019-02-24T03:50:19.309Z,2.03
2019-02-24T03:51:19.290Z,1.95
2019-02-24T03:52:19.318Z,2.04
2019-02-24T03:53:19.279Z,1.97
2019-02-24T03:54:19.263Z,1.97
2019-02-24T03:55:19.250Z,1.93
2019-02-24T03:56:19.236Z,2.00
2019-02-24T03:57:19.232Z,1.95
2019-02-24T03:58:19.259Z,1.98
2019-02-24T03:59:19.206Z,1.95
2019-02-24T04:00:19.196Z,1.95
2019-02-24T04:01:19.187Z,2.01
2019-02-24T04:02:19.176Z,1.92
2019-02-24T04:03:19.166Z,1.92
2019-02-24T04:04:19.212Z,1.98
2019-02-24T04:05:19.144Z,1.89
2019-02-24T04:06:19.131Z,1.98
2019-02-24T04:07:19.127Z,2.05
2019-02-24T04:08:19.121Z,1.89
2019-02-24T04:09:19.102Z,1.98
2019-02-24T04:10:19.118Z,1.93
2019-02-24T04:11:30.125Z,2.03
2019-02-24T04:12:19.063Z,2.04
2019-02-24T04:13:19.054Z,2.01
2019-02-24T04:14:19.044Z,2.03
2019-02-24T04:15:19.037Z,1.98
2019-02-24T04:16:19.121Z,2.05
2019-02-24T04:17:19.011Z,2.05
2019-02-24T04:18:19.002Z,2.04
2019-02-24T04:19:18.993Z,2.07
2019-02-24T04:20:18.982Z,2.07
2019-02-24T04:21:18.973Z,2.07
2019-02-24T04:22:19.131Z,2.12
2019-02-24T04:23:18.950Z,2.08
2019-02-24T04:24:18.939Z,2.03
2019-02-24T04:25:18.931Z,2.08
2019-02-24T04:26:18.923Z,2.01
2019-02-24T04:27:18.912Z,2.03
2019-02-24T04:28:18.902Z,2.15
2019-02-24T04:29:24.929Z,2.07
2019-02-24T04:30:19.872Z,2.01
2019-02-24T04:31:18.869Z,2.00
2019-02-24T04:32:18.855Z,2.07
2019-02-24T04:33:18.879Z,2.01
2019-02-24T04:34:18.824Z,2.07
2019-02-24T04:35:18.816Z,2.10
2019-02-24T04:36:18.805Z,2.03
2019-02-24T04:37:18.800Z,2.16
2019-02-24T04:38:18.796Z,2.04
2019-02-24T04:39:18.810Z,2.07
2019-02-24T04:40:18.763Z,1.98
2019-02-24T04:41:18.751Z,2.10
2019-02-24T04:42:31.599Z,2.14
2019-02-24T04:43:18.735Z,2.21
2019-02-24T04:44:18.727Z,2.18
2019-02-24T04:45:18.745Z,2.12
2019-02-24T04:46:18.702Z,2.14
2019-02-24T04:47:18.684Z,2.14
2019-02-24T04:48:18.687Z,2.16
2019-02-24T04:49:18.670Z,2.16
2019-02-24T04:50:18.655Z,2.23
2019-02-24T04:51:18.671Z,2.14
2019-02-24T04:52:18.639Z,2.14
2019-02-24T04:53:18.621Z,2.12
2019-02-24T04:54:18.610Z,2.14
2019-02-24T04:55:18.604Z,2.12
2019-02-24T04:56:18.610Z,2.10
2019-02-24T04:57:18.587Z,2.08
2019-02-24T04:58:18.573Z,2.12
2019-02-24T04:59:18.560Z,2.03
2019-02-24T05:00:18.556Z,2.04
2019-02-24T05:01:18.542Z,2.01
2019-02-24T05:02:18.572Z,2.01
2019-02-24T05:03:18.515Z,2.14
2019-02-24T05:04:18.507Z,2.12
2019-02-24T05:05:18.493Z,2.14
2019-02-24T05:06:18.485Z,2.15
2019-02-24T05:07:18.475Z,2.16
2019-02-24T05:08:18.481Z,2.00
2019-02-24T05:09:18.459Z,2.08
2019-02-24T05:10:18.451Z,2.08
2019-02-24T05:11:18.433Z,2.16
2019-02-24T05:12:18.432Z,2.14
2019-02-24T05:13:30.442Z,2.14
2019-02-24T05:14:18.400Z,2.15
2019-02-24T05:15:18.387Z,2.16
2019-02-24T05:16:18.895Z,2.16
2019-02-24T05:17:18.375Z,2.25
2019-02-24T05:18:18.353Z,2.16
2019-02-24T05:19:18.387Z,2.21
2019-02-24T05:20:18.338Z,2.23
2019-02-24T05:21:18.325Z,2.22
2019-02-24T05:22:18.948Z,2.28
2019-02-24T05:23:18.307Z,2.22
2019-02-24T05:24:18.289Z,2.12
2019-02-24T05:25:18.318Z,2.12
2019-02-24T05:26:18.273Z,2.12
2019-02-24T05:27:18.275Z,2.10
2019-02-24T05:28:18.278Z,2.10
2019-02-24T05:29:18.249Z,2.12
2019-02-24T05:30:18.272Z,2.21
2019-02-24T05:31:18.291Z,2.18
2019-02-24T05:32:18.242Z,2.25
2019-02-24T05:33:18.195Z,2.21
2019-02-24T05:34:18.184Z,2.22
2019-02-24T05:35:18.167Z,2.25
2019-02-24T05:36:18.186Z,2.25
2019-02-24T05:37:18.164Z,2.22
2019-02-24T05:38:18.146Z,2.25
2019-02-24T05:39:18.134Z,2.25
2019-02-24T05:40:18.117Z,2.22
2019-02-24T05:41:18.104Z,2.22
2019-02-24T05:42:18.138Z,2.25
2019-02-24T05:43:18.087Z,2.28
2019-02-24T05:44:30.695Z,2.28
2019-02-24T05:45:18.070Z,2.28
2019-02-24T05:46:18.132Z,2.33
2019-02-24T05:47:18.067Z,2.32
2019-02-24T05:48:18.483Z,2.32
2019-02-24T05:49:18.026Z,2.33
2019-02-24T05:50:18.029Z,2.33
2019-02-24T05:51:18.023Z,2.34
2019-02-24T05:52:18.030Z,2.39
2019-02-24T05:53:17.985Z,2.36
2019-02-24T05:54:18.215Z,2.33
2019-02-24T05:55:17.955Z,2.33
2019-02-24T05:56:17.988Z,2.30
2019-02-24T05:57:17.943Z,2.30
2019-02-24T05:58:17.958Z,2.34
2019-02-24T05:59:17.919Z,2.39
2019-02-24T06:00:17.945Z,2.39
2019-02-24T06:01:19.872Z,2.41
2019-02-24T06:02:17.886Z,2.39
2019-02-24T06:03:17.877Z,2.41
2019-02-24T06:04:17.870Z,2.46
2019-02-24T06:05:17.862Z,2.41
2019-02-24T06:06:17.846Z,2.41
2019-02-24T06:07:17.832Z,2.43
2019-02-24T06:08:17.824Z,2.40
2019-02-24T06:09:17.821Z,2.41
2019-02-24T06:10:17.799Z,2.47
2019-02-24T06:11:17.817Z,2.40
2019-02-24T06:12:17.784Z,2.39
2019-02-24T06:13:17.765Z,2.50
2019-02-24T06:14:17.759Z,2.54
2019-02-24T06:15:28.061Z,2.50
2019-02-24T06:16:17.740Z,2.52
2019-02-24T06:17:17.782Z,2.55
2019-02-24T06:18:17.708Z,2.57
2019-02-24T06:19:17.695Z,2.64
2019-02-24T06:20:17.695Z,2.69
2019-02-24T06:21:17.672Z,2.69
2019-02-24T06:22:17.674Z,2.69
2019-02-24T06:23:17.675Z,2.75
2019-02-24T06:24:17.642Z,2.72
2019-02-24T06:25:17.635Z,2.80
2019-02-24T06:26:17.617Z,2.73
2019-02-24T06:27:17.615Z,2.73
2019-02-24T06:28:17.605Z,2.79
2019-02-24T06:29:17.627Z,2.88
2019-02-24T06:30:17.579Z,2.82
2019-02-24T06:31:17.568Z,2.85
2019-02-24T06:32:17.556Z,2.90
2019-02-24T06:33:17.542Z,2.82
2019-02-24T06:34:17.532Z,2.90
2019-02-24T06:35:17.529Z,2.87
2019-02-24T06:36:17.511Z,2.88
2019-02-24T06:37:17.583Z,2.77
2019-02-24T06:38:17.487Z,2.80
2019-02-24T06:39:17.482Z,2.79
2019-02-24T06:40:17.504Z,2.87
2019-02-24T06:41:17.456Z,2.88
2019-02-24T06:42:17.447Z,2.79
2019-02-24T06:43:17.432Z,2.79
2019-02-24T06:44:17.426Z,2.87
2019-02-24T06:45:17.412Z,2.87
2019-02-24T06:46:30.024Z,2.98
2019-02-24T06:47:17.393Z,2.90
2019-02-24T06:48:17.388Z,2.94
2019-02-24T06:49:17.382Z,3.05
2019-02-24T06:50:17.353Z,3.01
2019-02-24T06:51:17.354Z,3.08
2019-02-24T06:52:17.376Z,3.12
2019-02-24T06:53:17.426Z,3.15
2019-02-24T06:54:17.317Z,3.16
2019-02-24T06:55:17.309Z,3.03
2019-02-24T06:56:17.400Z,2.98
2019-02-24T06:57:17.270Z,3.01
2019-02-24T06:58:18.504Z,3.06
2019-02-24T06:59:17.261Z,3.06
2019-02-24T07:00:17.297Z,3.08
2019-02-24T07:01:17.232Z,3.03
2019-02-24T07:02:17.222Z,3.03
2019-02-24T07:03:17.204Z,2.94
2019-02-24T07:04:17.294Z,3.05
2019-02-24T07:05:17.192Z,3.03
2019-02-24T07:06:17.168Z,2.98
2019-02-24T07:07:17.170Z,2.94
2019-02-24T07:08:17.355Z,3.01
2019-02-24T07:09:19.077Z,2.90
2019-02-24T07:10:17.162Z,2.97
2019-02-24T07:11:17.115Z,3.01
2019-02-24T07:12:17.103Z,2.95
2019-02-24T07:13:17.093Z,2.97
2019-02-24T07:14:17.078Z,2.94
2019-02-24T07:15:17.076Z,2.98
2019-02-24T07:16:17.074Z,3.00
2019-02-24T07:17:29.819Z,3.03
2019-02-24T07:18:17.094Z,3.01
2019-02-24T07:19:17.026Z,3.16
2019-02-24T07:20:17.023Z,3.24
2019-02-24T07:21:17.062Z,3.41
2019-02-24T07:22:16.995Z,3.45
2019-02-24T07:23:16.985Z,3.61
2019-02-24T07:24:16.966Z,3.64
2019-02-24T07:25:16.957Z,3.77
2019-02-24T07:26:16.951Z,3.85
2019-02-24T07:27:16.973Z,3.91
2019-02-24T07:28:16.929Z,3.96
2019-02-24T07:29:16.912Z,3.84
2019-02-24T07:30:23.078Z,3.89
2019-02-24T07:31:17.894Z,3.86
2019-02-24T07:32:16.886Z,3.92
2019-02-24T07:33:16.917Z,3.89
2019-02-24T07:34:16.862Z,3.86
2019-02-24T07:35:16.876Z,3.85
2019-02-24T07:36:16.850Z,3.89
2019-02-24T07:37:16.839Z,3.99
2019-02-24T07:38:16.827Z,3.95
2019-02-24T07:39:17.038Z,3.86
2019-02-24T07:40:16.793Z,3.94
2019-02-24T07:41:16.786Z,4.03
2019-02-24T07:42:16.769Z,3.99
2019-02-24T07:43:16.758Z,4.20
2019-02-24T07:44:16.755Z,4.22
2019-02-24T07:45:16.772Z,4.52
2019-02-24T07:46:16.723Z,4.58
2019-02-24T07:47:16.718Z,4.66
2019-02-24T07:48:30.055Z,4.86
2019-02-24T07:49:16.721Z,4.97
2019-02-24T07:50:16.750Z,5.10
2019-02-24T07:51:16.683Z,5.25
2019-02-24T07:52:16.680Z,5.46
2019-02-24T07:53:16.661Z,5.52
2019-02-24T07:54:16.653Z,5.62
2019-02-24T07:55:16.667Z,5.87
2019-02-24T07:56:16.716Z,6.01
2019-02-24T07:57:16.614Z,5.88
2019-02-24T07:58:16.612Z,6.06
2019-02-24T07:59:16.592Z,6.10
2019-02-24T08:00:16.577Z,6.15
2019-02-24T08:01:16.592Z,6.19
2019-02-24T08:02:16.606Z,6.17
2019-02-24T08:03:16.540Z,6.20
2019-02-24T08:04:16.537Z,6.35
2019-02-24T08:05:16.528Z,6.36
2019-02-24T08:06:16.510Z,6.47
2019-02-24T08:07:16.502Z,6.57
2019-02-24T08:08:16.866Z,6.83
2019-02-24T08:09:16.474Z,6.77
2019-02-24T08:10:16.590Z,6.75
2019-02-24T08:11:16.454Z,6.47
2019-02-24T08:12:16.488Z,6.50
2019-02-24T08:13:16.433Z,6.82
2019-02-24T08:14:16.513Z,6.93
2019-02-24T08:15:16.414Z,6.65
2019-02-24T08:16:17.032Z,6.60
2019-02-24T08:17:16.384Z,6.34
2019-02-24T08:18:16.371Z,6.22
2019-02-24T08:19:30.137Z,6.25
2019-02-24T08:20:16.365Z,6.09
2019-02-24T08:21:16.343Z,6.17
2019-02-24T08:22:16.326Z,6.07
2019-02-24T08:23:16.327Z,6.13
2019-02-24T08:24:16.323Z,6.06
2019-02-24T08:25:16.357Z,6.05
2019-02-24T08:26:16.289Z,6.09
2019-02-24T08:27:16.278Z,6.28
2019-02-24T08:28:16.282Z,6.16
2019-02-24T08:29:16.273Z,6.16
2019-02-24T08:30:16.245Z,6.19
2019-02-24T08:31:16.276Z,6.35
2019-02-24T08:32:16.216Z,6.35
2019-02-24T08:33:16.234Z,6.39
2019-02-24T08:34:16.241Z,6.49
2019-02-24T08:35:16.211Z,6.54
2019-02-24T08:36:16.171Z,6.44
2019-02-24T08:37:16.197Z,6.46
2019-02-24T08:38:16.154Z,6.32
2019-02-24T08:39:16.139Z,6.36
2019-02-24T08:40:16.127Z,6.46
2019-02-24T08:41:16.125Z,6.36
2019-02-24T08:42:16.124Z,6.22
2019-02-24T08:43:16.284Z,6.36
2019-02-24T08:44:16.072Z,6.36
2019-02-24T08:45:16.070Z,6.43
2019-02-24T08:46:16.057Z,6.46
2019-02-24T08:47:16.041Z,6.46
2019-02-24T08:48:16.030Z,6.44
2019-02-24T08:49:16.571Z,6.20
2019-02-24T08:50:28.867Z,6.26
2019-02-24T08:51:16.057Z,6.22
2019-02-24T08:52:15.987Z,6.02
2019-02-24T08:53:16.011Z,6.10
2019-02-24T08:54:16.030Z,6.15
2019-02-24T08:55:16.019Z,6.20
2019-02-24T08:56:15.939Z,6.25
2019-02-24T08:57:15.969Z,6.28
2019-02-24T08:58:15.937Z,6.19
2019-02-24T08:59:15.914Z,6.38
2019-02-24T09:00:15.911Z,6.28
2019-02-24T09:01:15.981Z,6.29
2019-02-24T09:02:15.876Z,6.22
2019-02-24T09:03:15.866Z,6.13
2019-02-24T09:04:15.870Z,6.07
2019-02-24T09:05:15.861Z,5.99
2019-02-24T09:06:15.834Z,6.09
2019-02-24T09:07:15.858Z,6.01
2019-02-24T09:08:15.834Z,6.09
2019-02-24T09:09:15.803Z,6.22
2019-02-24T09:10:15.789Z,6.25
2019-02-24T09:11:15.786Z,6.29
2019-02-24T09:12:15.782Z,6.20
2019-02-24T09:13:15.819Z,6.06
2019-02-24T09:14:15.751Z,6.20
2019-02-24T09:15:15.758Z,6.35
2019-02-24T09:16:15.743Z,6.49
2019-02-24T09:17:15.715Z,6.53
2019-02-24T09:18:15.758Z,6.56
2019-02-24T09:19:15.815Z,6.57
2019-02-24T09:20:15.678Z,6.59
2019-02-24T09:21:28.929Z,6.78
2019-02-24T09:22:15.651Z,6.80
2019-02-24T09:23:15.648Z,6.95
2019-02-24T09:24:15.645Z,6.97
2019-02-24T09:25:15.708Z,6.80
2019-02-24T09:26:15.646Z,6.67
2019-02-24T09:27:15.626Z,6.43
2019-02-24T09:28:15.599Z,6.43
2019-02-24T09:29:15.581Z,6.57
2019-02-24T09:30:15.630Z,6.86
2019-02-24T09:31:15.569Z,6.68
2019-02-24T09:32:15.598Z,6.95
2019-02-24T09:33:15.532Z,7.04
2019-02-24T09:34:15.544Z,6.90
2019-02-24T09:35:15.586Z,6.67
2019-02-24T09:36:15.526Z,6.34
2019-02-24T09:37:15.491Z,6.47
2019-02-24T09:38:15.515Z,6.50
2019-02-24T09:39:15.488Z,6.62
2019-02-24T09:40:15.457Z,6.65
2019-02-24T09:41:15.535Z,6.75
2019-02-24T09:42:15.431Z,6.50
2019-02-24T09:43:15.419Z,6.64
2019-02-24T09:44:15.406Z,6.70
2019-02-24T09:45:15.396Z,6.80
2019-02-24T09:46:15.381Z,6.68
2019-02-24T09:47:15.415Z,6.89
2019-02-24T09:48:15.363Z,7.03
2019-02-24T09:49:15.357Z,7.15
2019-02-24T09:50:15.336Z,7.23
2019-02-24T09:51:15.323Z,7.33
2019-02-24T09:52:27.691Z,7.37
2019-02-24T09:53:15.299Z,7.40
2019-02-24T09:54:15.296Z,7.37
2019-02-24T09:55:15.285Z,7.18
2019-02-24T09:56:15.275Z,7.08
2019-02-24T09:57:15.284Z,7.08
2019-02-24T09:58:15.282Z,7.04
2019-02-24T09:59:15.243Z,6.90
2019-02-24T10:00:15.229Z,6.74
2019-02-24T10:01:15.209Z,6.83
2019-02-24T10:02:15.197Z,6.82
2019-02-24T10:03:15.197Z,6.97
2019-02-24T10:04:15.219Z,7.10
2019-02-24T10:05:15.170Z,7.04
2019-02-24T10:06:15.160Z,7.14
2019-02-24T10:07:15.147Z,7.03
2019-02-24T10:08:15.132Z,6.87
2019-02-24T10:09:15.120Z,6.83
2019-02-24T10:10:15.187Z,6.87
2019-02-24T10:11:15.102Z,6.78
2019-02-24T10:12:15.085Z,6.80
2019-02-24T10:13:15.075Z,6.71
2019-02-24T10:14:15.061Z,6.57
2019-02-24T10:15:15.048Z,6.67
2019-02-24T10:16:15.198Z,6.57
2019-02-24T10:17:15.029Z,6.57
2019-02-24T10:18:15.023Z,6.47
2019-02-24T10:19:15.003Z,6.52
2019-02-24T10:20:14.995Z,6.39
2019-02-24T10:21:14.983Z,6.43
2019-02-24T10:22:15.007Z,6.46
2019-02-24T10:23:27.473Z,6.34
2019-02-24T10:24:14.952Z,6.39
2019-02-24T10:25:14.938Z,6.41
2019-02-24T10:26:14.928Z,6.49
2019-02-24T10:27:14.927Z,6.57
2019-02-24T10:28:14.947Z,6.62
2019-02-24T10:29:14.894Z,6.67
2019-02-24T10:30:14.879Z,6.64
2019-02-24T10:31:19.874Z,6.57
2019-02-24T10:32:15.871Z,6.62
2019-02-24T10:33:14.850Z,6.78
2019-02-24T10:34:14.875Z,6.77
2019-02-24T10:35:14.819Z,6.70
2019-02-24T10:36:14.814Z,6.93
2019-02-24T10:37:14.814Z,7.05
2019-02-24T10:38:14.792Z,7.03
2019-02-24T10:39:14.777Z,6.95
2019-02-24T10:40:14.808Z,7.00
2019-02-24T10:41:14.751Z,7.11
2019-02-24T10:42:14.742Z,7.03
2019-02-24T10:43:14.740Z,7.04
2019-02-24T10:44:14.740Z,6.86
2019-02-24T10:45:14.707Z,6.86
2019-02-24T10:46:14.734Z,7.00
2019-02-24T10:47:14.683Z,7.08
2019-02-24T10:48:15.671Z,7.18
2019-02-24T10:49:14.665Z,7.04
2019-02-24T10:50:14.650Z,7.14
2019-02-24T10:51:14.638Z,7.04
2019-02-24T10:52:14.725Z,6.96
2019-02-24T10:53:14.624Z,6.93
2019-02-24T10:54:27.604Z,7.13
2019-02-24T10:55:14.589Z,7.14
2019-02-24T10:56:14.577Z,7.11
2019-02-24T10:57:14.575Z,7.25
2019-02-24T10:58:14.599Z,7.39
2019-02-24T10:59:14.545Z,7.39
2019-02-24T11:00:14.540Z,7.36
2019-02-24T11:01:14.526Z,7.47
2019-02-24T11:02:14.521Z,7.43
2019-02-24T11:03:14.508Z,7.56
2019-02-24T11:04:14.525Z,7.62
2019-02-24T11:05:14.475Z,7.75
2019-02-24T11:06:14.465Z,7.84
2019-02-24T11:07:14.461Z,7.84
2019-02-24T11:08:14.443Z,7.80
2019-02-24T11:09:14.442Z,7.59
2019-02-24T11:10:14.459Z,7.62
2019-02-24T11:11:14.423Z,7.40
2019-02-24T11:12:14.411Z,7.41
2019-02-24T11:13:14.389Z,7.26
2019-02-24T11:14:14.375Z,7.25
2019-02-24T11:15:14.375Z,7.37
2019-02-24T11:16:14.393Z,7.28
2019-02-24T11:17:14.350Z,7.26
2019-02-24T11:18:14.387Z,7.32
2019-02-24T11:19:14.325Z,7.37
2019-02-24T11:20:14.317Z,7.28
2019-02-24T11:21:14.304Z,7.39
2019-02-24T11:22:14.322Z,7.40
2019-02-24T11:23:14.280Z,7.29
2019-02-24T11:24:14.275Z,7.37
2019-02-24T11:25:26.266Z,7.37
2019-02-24T11:26:14.240Z,7.31
2019-02-24T11:27:14.227Z,7.32
2019-02-24T11:28:14.222Z,7.21
2019-02-24T11:29:14.209Z,7.29
2019-02-24T11:30:14.198Z,7.29
2019-02-24T11:31:14.193Z,7.31
2019-02-24T11:32:14.168Z,7.22
2019-02-24T11:33:14.335Z,7.29
2019-02-24T11:34:14.151Z,7.28
2019-02-24T11:35:14.147Z,7.28
2019-02-24T11:36:14.134Z,7.21
2019-02-24T11:37:14.115Z,7.11
2019-02-24T11:38:14.103Z,7.33
2019-02-24T11:39:14.137Z,7.33
2019-02-24T11:40:14.100Z,7.25
2019-02-24T11:41:14.065Z,7.23
2019-02-24T11:42:14.062Z,7.26
2019-02-24T11:43:15.423Z,7.13
2019-02-24T11:44:14.031Z,7.15
2019-02-24T11:45:14.201Z,7.03
2019-02-24T11:46:14.032Z,7.15
2019-02-24T11:47:14.010Z,7.21
2019-02-24T11:48:13.990Z,7.21
2019-02-24T11:49:13.983Z,7.07
2019-02-24T11:50:13.971Z,7.03
2019-02-24T11:51:13.996Z,7.05
2019-02-24T11:52:13.943Z,7.07
2019-02-24T11:53:13.935Z,6.93
2019-02-24T11:54:13.921Z,6.96
2019-02-24T11:55:13.916Z,6.86
2019-02-24T11:56:25.785Z,6.97
2019-02-24T11:57:13.886Z,7.01
2019-02-24T11:58:13.879Z,7.05
2019-02-24T11:59:13.865Z,7.05
2019-02-24T12:00:13.855Z,7.03
2019-02-24T12:01:13.848Z,6.97
2019-02-24T12:02:13.852Z,6.86
2019-02-24T12:03:14.003Z,6.85
2019-02-24T12:04:13.827Z,6.80
2019-02-24T12:05:13.805Z,6.77
2019-02-24T12:06:13.796Z,6.62
2019-02-24T12:07:13.822Z,6.57
2019-02-24T12:08:13.767Z,6.70
2019-02-24T12:09:13.793Z,6.62
2019-02-24T12:10:13.743Z,6.57
2019-02-24T12:11:13.731Z,6.50
2019-02-24T12:12:13.722Z,6.46
2019-02-24T12:13:13.712Z,6.50
2019-02-24T12:14:13.696Z,6.47
2019-02-24T12:15:13.724Z,6.62
2019-02-24T12:16:13.678Z,6.44
2019-02-24T12:17:13.720Z,6.52
2019-02-24T12:18:13.654Z,6.49
2019-02-24T12:19:13.646Z,6.62
2019-02-24T12:20:13.656Z,6.57
2019-02-24T12:21:13.661Z,6.67
2019-02-24T12:22:13.615Z,6.59
2019-02-24T12:23:13.596Z,6.59
2019-02-24T12:24:13.585Z,6.34
2019-02-24T12:25:13.579Z,6.22
2019-02-24T12:26:13.570Z,6.26
2019-02-24T12:27:25.302Z,6.06
2019-02-24T12:28:13.544Z,6.05
2019-02-24T12:29:13.531Z,5.97
2019-02-24T12:30:13.524Z,5.79
2019-02-24T12:31:13.509Z,5.88
2019-02-24T12:32:13.499Z,5.73
2019-02-24T12:33:13.536Z,5.62
2019-02-24T12:34:13.482Z,5.47
2019-02-24T12:35:13.469Z,5.52
2019-02-24T12:36:13.452Z,5.54
2019-02-24T12:37:13.447Z,5.43
2019-02-24T12:38:13.430Z,5.49
2019-02-24T12:39:13.463Z,5.47
2019-02-24T12:40:14.263Z,5.70
2019-02-24T12:41:15.278Z,5.65
2019-02-24T12:42:13.393Z,5.65
2019-02-24T12:43:13.379Z,5.51
2019-02-24T12:44:13.367Z,5.49
2019-02-24T12:45:13.393Z,5.41
2019-02-24T12:46:13.341Z,5.29
2019-02-24T12:47:13.329Z,5.23
2019-02-24T12:48:13.335Z,5.15
2019-02-24T12:49:13.312Z,5.04
2019-02-24T12:50:13.301Z,4.97
2019-02-24T12:51:13.322Z,4.89
2019-02-24T12:52:13.271Z,4.89
2019-02-24T12:53:13.260Z,4.98
2019-02-24T12:54:13.248Z,4.95
2019-02-24T12:55:13.244Z,4.74
2019-02-24T12:56:14.850Z,4.83
2019-02-24T12:57:13.257Z,4.83
2019-02-24T12:58:26.290Z,4.70
2019-02-24T12:59:13.193Z,4.70
2019-02-24T13:00:13.185Z,4.66
2019-02-24T13:01:13.179Z,4.56
2019-02-24T13:02:13.160Z,4.60
2019-02-24T13:03:13.176Z,4.57
2019-02-24T13:04:13.141Z,4.57
2019-02-24T13:05:13.135Z,4.43
2019-02-24T13:06:13.116Z,4.42
2019-02-24T13:07:13.110Z,4.39
2019-02-24T13:08:13.101Z,4.38
2019-02-24T13:09:13.088Z,4.31
2019-02-24T13:10:13.071Z,4.28
2019-02-24T13:11:13.063Z,4.10
2019-02-24T13:12:13.049Z,4.13
2019-02-24T13:13:13.044Z,4.12
2019-02-24T13:14:13.079Z,4.13
2019-02-24T13:15:13.018Z,4.14
2019-02-24T13:16:13.007Z,4.13
2019-02-24T13:17:13.002Z,4.00
2019-02-24T13:18:12.987Z,4.07